Home PIREPS Pireps

Flight BEL2174

  • Submitted By: John Hewson
  • Departure Airport: Manchester Airport (EGCC)
  • Arrival Airport: Bruxelles National (EBBR)
  • Aircraft: DHC-8 402 (G-ECOK)
  • Flight Time: 00.45
  • Date Submitted: 16/01/2015
  • Status: Accepted
Flight Details
Gross Revenue:
(57 load / € 0.00 per unit
€ 0.00
Fuel Cost:
(0 fuel used @ 5.1 / unit)
€ 0.00

Additional Log Information:

View Log

Aircraft Used in flight is Airbus A319 Brussels Airlines OO-SSR
12:52 Landing Gear Down @ 168 Knots and 2600 Feet
13:00 You Landed @ 126 Knots and with -700 Vertical Speed
Arrival Weather
EBBR 161220Z 22007KT CAVOK 08/02 Q1006 NOSIGrn
13:00 Your Landing was very hard
13:01 Brakes are On
13:02 Brussels Bel-Track1.0.0.5

Route Map

Corporate About Us Our Team Vacancies Information Fleet Route Network Rules and Regulations Operations Flight Schedules Event Center Tours Partners IVAO Vatsim Acars dev FSCB

fb Users Online No pilots online!
0 Pilot(s) and 144 Guest(s) Online
CMS by phpVMS - Design by Crazycreatives.com - Copyright © 2018 - Brussels Airlines Virtual